sensor_id;sensor_type;location;lat;lon;timestamp;temperature;humidity
15455;DHT22;21057;51.024;7.540;2022-12-10T00:01:56;-1.10;99.90
15455;DHT22;21057;51.024;7.540;2022-12-10T00:04:22;-1.10;99.90
15455;DHT22;21057;51.024;7.540;2022-12-10T00:06:49;-1.30;99.90
15455;DHT22;21057;51.024;7.540;2022-12-10T00:09:19;-1.40;99.90
15455;DHT22;21057;51.024;7.540;2022-12-10T00:11:46;-1.40;99.90
15455;DHT22;21057;51.024;7.540;2022-12-10T00:14:14;-1.40;99.90
15455;DHT22;21057;51.024;7.540;2022-12-10T00:16:41;-1.40;99.90
15455;DHT22;21057;51.024;7.540;2022-12-10T00:19:08;-1.30;99.90
15455;DHT22;21057;51.024;7.540;2022-12-10T00:21:37;-1.30;99.90
15455;DHT22;21057;51.024;7.540;2022-12-10T00:24:05;-1.30;99.90
15455;DHT22;21057;51.024;7.540;2022-12-10T00:26:35;-1.30;99.90
15455;DHT22;21057;51.024;7.540;2022-12-10T00:29:05;-1.30;99.90
15455;DHT22;21057;51.024;7.540;2022-12-10T00:31:34;-1.30;99.90
15455;DHT22;21057;51.024;7.540;2022-12-10T00:34:05;-1.40;99.90
15455;DHT22;21057;51.024;7.540;2022-12-10T00:36:33;-1.20;99.90
15455;DHT22;21057;51.024;7.540;2022-12-10T00:39:01;-1.30;99.90
15455;DHT22;21057;51.024;7.540;2022-12-10T00:41:28;-1.20;99.90
15455;DHT22;21057;51.024;7.540;2022-12-10T00:43:57;-1.30;99.90
15455;DHT22;21057;51.024;7.540;2022-12-10T00:46:24;-1.10;99.90
15455;DHT22;21057;51.024;7.540;2022-12-10T00:48:51;-1.00;99.90
15455;DHT22;21057;51.024;7.540;2022-12-10T00:51:20;-1.00;99.90
15455;DHT22;21057;51.024;7.540;2022-12-10T00:53:50;-1.20;99.90
15455;DHT22;21057;51.024;7.540;2022-12-10T00:56:19;-1.10;99.90
15455;DHT22;21057;51.024;7.540;2022-12-10T00:58:49;-1.20;99.90
15455;DHT22;21057;51.024;7.540;2022-12-10T01:01:19;-1.30;99.90
15455;DHT22;21057;51.024;7.540;2022-12-10T01:03:48;-1.20;99.90
15455;DHT22;21057;51.024;7.540;2022-12-10T01:06:17;-1.30;99.90
15455;DHT22;21057;51.024;7.540;2022-12-10T01:08:45;-1.30;99.90
15455;DHT22;21057;51.024;7.540;2022-12-10T01:11:21;-1.50;99.90
15455;DHT22;21057;51.024;7.540;2022-12-10T01:13:48;-1.40;99.90
15455;DHT22;21057;51.024;7.540;2022-12-10T01:16:19;-1.30;99.90
15455;DHT22;21057;51.024;7.540;2022-12-10T01:18:47;-1.50;99.90
15455;DHT22;21057;51.024;7.540;2022-12-10T01:21:16;-1.50;99.90
15455;DHT22;21057;51.024;7.540;2022-12-10T01:23:44;-1.50;99.90
15455;DHT22;21057;51.024;7.540;2022-12-10T01:26:13;-1.50;99.90
15455;DHT22;21057;51.024;7.540;2022-12-10T01:28:41;-1.50;99.90
15455;DHT22;21057;51.024;7.540;2022-12-10T01:31:12;-1.60;99.90
15455;DHT22;21057;51.024;7.540;2022-12-10T01:33:41;-1.60;99.90
15455;DHT22;21057;51.024;7.540;2022-12-10T01:36:10;-1.70;99.90
15455;DHT22;21057;51.024;7.540;2022-12-10T01:38:38;-1.70;99.90
15455;DHT22;21057;51.024;7.540;2022-12-10T01:41:06;-1.70;99.90
15455;DHT22;21057;51.024;7.540;2022-12-10T01:43:51;-1.70;99.90
15455;DHT22;21057;51.024;7.540;2022-12-10T01:46:18;-1.70;99.90
15455;DHT22;21057;51.024;7.540;2022-12-10T01:48:46;-1.80;99.90
15455;DHT22;21057;51.024;7.540;2022-12-10T01:51:14;-1.80;99.90
15455;DHT22;21057;51.024;7.540;2022-12-10T01:53:42;-1.90;99.90
15455;DHT22;21057;51.024;7.540;2022-12-10T01:56:11;-1.90;99.90
15455;DHT22;21057;51.024;7.540;2022-12-10T01:58:38;-1.90;99.90
15455;DHT22;21057;51.024;7.540;2022-12-10T02:01:09;-2.00;99.90
15455;DHT22;21057;51.024;7.540;2022-12-10T02:03:50;-2.00;99.90
15455;DHT22;21057;51.024;7.540;2022-12-10T02:06:28;-2.10;99.90
15455;DHT22;21057;51.024;7.540;2022-12-10T02:09:04;-2.20;99.90
15455;DHT22;21057;51.024;7.540;2022-12-10T02:11:41;-2.10;99.90
15455;DHT22;21057;51.024;7.540;2022-12-10T02:14:13;-2.10;99.90
15455;DHT22;21057;51.024;7.540;2022-12-10T02:16:46;-2.10;99.90
15455;DHT22;21057;51.024;7.540;2022-12-10T02:19:20;-2.10;99.90
15455;DHT22;21057;51.024;7.540;2022-12-10T02:21:50;-2.10;99.90
15455;DHT22;21057;51.024;7.540;2022-12-10T02:24:22;-2.10;99.90
15455;DHT22;21057;51.024;7.540;2022-12-10T02:26:55;-2.10;99.90
15455;DHT22;21057;51.024;7.540;2022-12-10T02:29:26;-2.20;99.90
15455;DHT22;21057;51.024;7.540;2022-12-10T02:31:56;-2.20;99.90
15455;DHT22;21057;51.024;7.540;2022-12-10T02:34:28;-2.20;99.90
15455;DHT22;21057;51.024;7.540;2022-12-10T02:36:58;-2.20;99.90
15455;DHT22;21057;51.024;7.540;2022-12-10T02:39:32;-2.10;99.90
15455;DHT22;21057;51.024;7.540;2022-12-10T02:42:01;-2.20;99.90
15455;DHT22;21057;51.024;7.540;2022-12-10T02:44:39;-2.00;99.90
15455;DHT22;21057;51.024;7.540;2022-12-10T02:47:08;-2.00;99.90
15455;DHT22;21057;51.024;7.540;2022-12-10T02:49:36;-2.00;99.90
15455;DHT22;21057;51.024;7.540;2022-12-10T02:52:12;-2.10;99.90
15455;DHT22;21057;51.024;7.540;2022-12-10T02:54:42;-2.10;99.90
15455;DHT22;21057;51.024;7.540;2022-12-10T02:57:34;-2.30;99.90
15455;DHT22;21057;51.024;7.540;2022-12-10T03:00:09;-2.30;99.90
15455;DHT22;21057;51.024;7.540;2022-12-10T03:02:58;-2.30;99.90
15455;DHT22;21057;51.024;7.540;2022-12-10T03:05:33;-2.40;99.90
15455;DHT22;21057;51.024;7.540;2022-12-10T03:08:06;-2.30;99.90
15455;DHT22;21057;51.024;7.540;2022-12-10T03:10:40;-2.20;99.90
15455;DHT22;21057;51.024;7.540;2022-12-10T03:13:18;-2.20;99.90
15455;DHT22;21057;51.024;7.540;2022-12-10T03:15:50;-2.10;99.90
15455;DHT22;21057;51.024;7.540;2022-12-10T03:18:21;-2.10;99.90
15455;DHT22;21057;51.024;7.540;2022-12-10T03:20:51;-2.00;99.90
15455;DHT22;21057;51.024;7.540;2022-12-10T03:23:20;-2.10;99.90
15455;DHT22;21057;51.024;7.540;2022-12-10T03:25:48;-2.10;99.90
15455;DHT22;21057;51.024;7.540;2022-12-10T03:28:18;-2.20;99.90
15455;DHT22;21057;51.024;7.540;2022-12-10T03:30:48;-2.20;99.90
15455;DHT22;21057;51.024;7.540;2022-12-10T03:33:16;-2.20;99.90
15455;DHT22;21057;51.024;7.540;2022-12-10T03:35:43;-2.20;99.90
15455;DHT22;21057;51.024;7.540;2022-12-10T03:38:11;-2.10;99.90
15455;DHT22;21057;51.024;7.540;2022-12-10T03:40:46;-2.20;99.90
15455;DHT22;21057;51.024;7.540;2022-12-10T03:43:13;-2.30;99.90
15455;DHT22;21057;51.024;7.540;2022-12-10T03:45:40;-2.20;99.90
15455;DHT22;21057;51.024;7.540;2022-12-10T03:48:09;-2.20;99.90
15455;DHT22;21057;51.024;7.540;2022-12-10T03:50:36;-2.30;99.90
15455;DHT22;21057;51.024;7.540;2022-12-10T03:53:03;-2.40;99.90
15455;DHT22;21057;51.024;7.540;2022-12-10T03:55:30;-2.30;99.90
15455;DHT22;21057;51.024;7.540;2022-12-10T03:58:00;-2.30;99.90
15455;DHT22;21057;51.024;7.540;2022-12-10T04:00:28;-2.40;99.90
15455;DHT22;21057;51.024;7.540;2022-12-10T04:02:55;-2.30;99.90
15455;DHT22;21057;51.024;7.540;2022-12-10T04:05:23;-2.30;99.90
15455;DHT22;21057;51.024;7.540;2022-12-10T04:07:50;-2.20;99.90
15455;DHT22;21057;51.024;7.540;2022-12-10T04:10:17;-2.20;99.90
15455;DHT22;21057;51.024;7.540;2022-12-10T04:12:44;-2.20;99.90
15455;DHT22;21057;51.024;7.540;2022-12-10T04:15:31;-2.10;99.90
15455;DHT22;21057;51.024;7.540;2022-12-10T04:18:16;-2.00;99.90
15455;DHT22;21057;51.024;7.540;2022-12-10T04:20:44;-1.80;99.90
15455;DHT22;21057;51.024;7.540;2022-12-10T04:23:28;-1.70;99.90
15455;DHT22;21057;51.024;7.540;2022-12-10T04:26:13;-1.60;99.90
15455;DHT22;21057;51.024;7.540;2022-12-10T04:28:57;-1.60;99.90
15455;DHT22;21057;51.024;7.540;2022-12-10T04:31:24;-1.50;99.90
15455;DHT22;21057;51.024;7.540;2022-12-10T04:34:00;-1.50;99.90
15455;DHT22;21057;51.024;7.540;2022-12-10T04:36:28;-1.60;99.90
15455;DHT22;21057;51.024;7.540;2022-12-10T04:38:55;-1.60;99.90
15455;DHT22;21057;51.024;7.540;2022-12-10T04:41:27;-1.40;99.90
15455;DHT22;21057;51.024;7.540;2022-12-10T04:43:54;-1.30;99.90
15455;DHT22;21057;51.024;7.540;2022-12-10T04:46:21;-1.30;99.90
15455;DHT22;21057;51.024;7.540;2022-12-10T04:48:51;-1.10;99.90
15455;DHT22;21057;51.024;7.540;2022-12-10T04:51:18;-1.10;99.90
15455;DHT22;21057;51.024;7.540;2022-12-10T04:53:48;-1.00;99.90
15455;DHT22;21057;51.024;7.540;2022-12-10T04:56:14;-1.00;99.90
15455;DHT22;21057;51.024;7.540;2022-12-10T04:58:42;-0.70;99.90
15455;DHT22;21057;51.024;7.540;2022-12-10T05:01:11;-0.70;99.90
15455;DHT22;21057;51.024;7.540;2022-12-10T05:03:40;-0.70;99.90
15455;DHT22;21057;51.024;7.540;2022-12-10T05:06:10;-0.70;99.90
15455;DHT22;21057;51.024;7.540;2022-12-10T05:08:38;-0.70;99.90
15455;DHT22;21057;51.024;7.540;2022-12-10T05:11:09;-0.60;99.90
15455;DHT22;21057;51.024;7.540;2022-12-10T05:14:04;-0.60;99.90
15455;DHT22;21057;51.024;7.540;2022-12-10T05:16:32;-0.70;99.90
15455;DHT22;21057;51.024;7.540;2022-12-10T05:19:00;-0.60;99.90
15455;DHT22;21057;51.024;7.540;2022-12-10T05:21:28;-0.40;99.90
15455;DHT22;21057;51.024;7.540;2022-12-10T05:24:17;-0.40;99.90
15455;DHT22;21057;51.024;7.540;2022-12-10T05:26:44;-0.50;99.90
15455;DHT22;21057;51.024;7.540;2022-12-10T05:29:12;-0.50;99.90
15455;DHT22;21057;51.024;7.540;2022-12-10T05:31:40;-0.60;99.90
15455;DHT22;21057;51.024;7.540;2022-12-10T05:34:10;-0.40;99.90
15455;DHT22;21057;51.024;7.540;2022-12-10T05:36:37;-0.20;99.90
15455;DHT22;21057;51.024;7.540;2022-12-10T05:39:04;-0.40;99.90
15455;DHT22;21057;51.024;7.540;2022-12-10T05:41:38;-0.30;99.90
15455;DHT22;21057;51.024;7.540;2022-12-10T05:44:08;-0.40;99.90
15455;DHT22;21057;51.024;7.540;2022-12-10T05:46:35;-0.40;99.90
15455;DHT22;21057;51.024;7.540;2022-12-10T05:49:04;-0.40;99.90
15455;DHT22;21057;51.024;7.540;2022-12-10T05:51:34;-0.30;99.90
15455;DHT22;21057;51.024;7.540;2022-12-10T05:54:01;-0.30;99.90
15455;DHT22;21057;51.024;7.540;2022-12-10T05:56:29;-0.20;99.90
15455;DHT22;21057;51.024;7.540;2022-12-10T05:58:58;-0.20;99.90
15455;DHT22;21057;51.024;7.540;2022-12-10T06:01:28;0.00;99.90
15455;DHT22;21057;51.024;7.540;2022-12-10T06:03:57;-0.10;99.90
15455;DHT22;21057;51.024;7.540;2022-12-10T06:06:26;-0.20;99.90
15455;DHT22;21057;51.024;7.540;2022-12-10T06:08:59;-0.20;99.90
15455;DHT22;21057;51.024;7.540;2022-12-10T06:11:28;-0.20;99.90
15455;DHT22;21057;51.024;7.540;2022-12-10T06:14:02;-0.20;99.90
15455;DHT22;21057;51.024;7.540;2022-12-10T06:16:30;-0.30;99.90
15455;DHT22;21057;51.024;7.540;2022-12-10T06:18:57;-0.10;99.90
15455;DHT22;21057;51.024;7.540;2022-12-10T06:21:26;-0.10;99.90
15455;DHT22;21057;51.024;7.540;2022-12-10T06:23:53;0.10;99.90
15455;DHT22;21057;51.024;7.540;2022-12-10T06:26:22;0.10;99.90
15455;DHT22;21057;51.024;7.540;2022-12-10T06:28:49;0.10;99.90
15455;DHT22;21057;51.024;7.540;2022-12-10T06:31:17;-0.10;99.90
15455;DHT22;21057;51.024;7.540;2022-12-10T06:33:46;0.00;99.90
15455;DHT22;21057;51.024;7.540;2022-12-10T06:36:16;0.10;99.90
15455;DHT22;21057;51.024;7.540;2022-12-10T06:38:43;0.10;99.90
15455;DHT22;21057;51.024;7.540;2022-12-10T06:41:12;0.20;99.90
15455;DHT22;21057;51.024;7.540;2022-12-10T06:43:40;0.20;99.90
15455;DHT22;21057;51.024;7.540;2022-12-10T06:46:09;0.10;99.90
15455;DHT22;21057;51.024;7.540;2022-12-10T06:48:36;0.10;99.90
15455;DHT22;21057;51.024;7.540;2022-12-10T06:51:06;0.10;99.90
15455;DHT22;21057;51.024;7.540;2022-12-10T06:53:36;0.10;99.90
15455;DHT22;21057;51.024;7.540;2022-12-10T06:56:04;0.10;99.90
15455;DHT22;21057;51.024;7.540;2022-12-10T06:58:33;0.30;99.90
15455;DHT22;21057;51.024;7.540;2022-12-10T07:01:03;0.30;99.90
15455;DHT22;21057;51.024;7.540;2022-12-10T07:03:30;0.30;99.90
15455;DHT22;21057;51.024;7.540;2022-12-10T07:06:03;0.20;99.90
15455;DHT22;21057;51.024;7.540;2022-12-10T07:08:31;0.10;99.90
15455;DHT22;21057;51.024;7.540;2022-12-10T07:10:58;0.20;99.90
15455;DHT22;21057;51.024;7.540;2022-12-10T07:13:25;0.10;99.90
15455;DHT22;21057;51.024;7.540;2022-12-10T07:15:52;0.10;99.90
15455;DHT22;21057;51.024;7.540;2022-12-10T07:18:21;0.00;99.90
15455;DHT22;21057;51.024;7.540;2022-12-10T07:20:48;0.10;99.90
15455;DHT22;21057;51.024;7.540;2022-12-10T07:23:15;0.10;99.90
15455;DHT22;21057;51.024;7.540;2022-12-10T07:25:43;0.20;99.90
15455;DHT22;21057;51.024;7.540;2022-12-10T07:28:10;0.20;99.90
15455;DHT22;21057;51.024;7.540;2022-12-10T07:30:37;0.20;99.90
15455;DHT22;21057;51.024;7.540;2022-12-10T07:33:04;0.40;99.90
15455;DHT22;21057;51.024;7.540;2022-12-10T07:35:30;0.40;99.90
15455;DHT22;21057;51.024;7.540;2022-12-10T07:37:58;0.40;99.90
15455;DHT22;21057;51.024;7.540;2022-12-10T07:40:24;0.50;99.90
15455;DHT22;21057;51.024;7.540;2022-12-10T07:42:53;0.50;99.90
15455;DHT22;21057;51.024;7.540;2022-12-10T07:45:19;0.60;99.90
15455;DHT22;21057;51.024;7.540;2022-12-10T07:47:47;0.50;99.90
15455;DHT22;21057;51.024;7.540;2022-12-10T07:50:14;0.40;99.90
15455;DHT22;21057;51.024;7.540;2022-12-10T07:52:41;0.40;99.90
15455;DHT22;21057;51.024;7.540;2022-12-10T07:55:09;0.50;99.90
15455;DHT22;21057;51.024;7.540;2022-12-10T07:57:36;0.60;99.90
15455;DHT22;21057;51.024;7.540;2022-12-10T08:00:06;0.70;99.90
15455;DHT22;21057;51.024;7.540;2022-12-10T08:02:33;0.70;99.90
15455;DHT22;21057;51.024;7.540;2022-12-10T08:05:00;0.60;99.90
15455;DHT22;21057;51.024;7.540;2022-12-10T08:07:27;0.50;99.90
15455;DHT22;21057;51.024;7.540;2022-12-10T08:09:53;0.50;99.90
15455;DHT22;21057;51.024;7.540;2022-12-10T08:12:20;0.60;99.90
15455;DHT22;21057;51.024;7.540;2022-12-10T08:14:47;0.60;99.90
15455;DHT22;21057;51.024;7.540;2022-12-10T08:17:15;0.60;99.90
15455;DHT22;21057;51.024;7.540;2022-12-10T08:19:42;0.60;99.90
15455;DHT22;21057;51.024;7.540;2022-12-10T08:22:09;0.60;99.90
15455;DHT22;21057;51.024;7.540;2022-12-10T08:24:36;0.90;99.90
15455;DHT22;21057;51.024;7.540;2022-12-10T08:27:03;0.90;99.90
15455;DHT22;21057;51.024;7.540;2022-12-10T08:29:30;0.90;99.90
15455;DHT22;21057;51.024;7.540;2022-12-10T08:31:57;0.60;99.90
15455;DHT22;21057;51.024;7.540;2022-12-10T08:34:25;0.60;99.90
15455;DHT22;21057;51.024;7.540;2022-12-10T08:36:52;0.60;99.90
15455;DHT22;21057;51.024;7.540;2022-12-10T08:39:19;0.50;99.90
15455;DHT22;21057;51.024;7.540;2022-12-10T08:41:47;0.50;99.90
15455;DHT22;21057;51.024;7.540;2022-12-10T08:44:14;0.50;99.90
15455;DHT22;21057;51.024;7.540;2022-12-10T08:46:41;0.60;99.90
15455;DHT22;21057;51.024;7.540;2022-12-10T08:49:07;0.70;99.90
15455;DHT22;21057;51.024;7.540;2022-12-10T08:51:36;0.60;99.90
15455;DHT22;21057;51.024;7.540;2022-12-10T08:54:03;0.60;99.90
15455;DHT22;21057;51.024;7.540;2022-12-10T08:56:31;0.50;99.90
15455;DHT22;21057;51.024;7.540;2022-12-10T08:58:58;0.60;99.90
15455;DHT22;21057;51.024;7.540;2022-12-10T09:01:32;0.50;99.90
15455;DHT22;21057;51.024;7.540;2022-12-10T09:03:59;0.10;99.90
15455;DHT22;21057;51.024;7.540;2022-12-10T09:06:27;0.10;99.90
15455;DHT22;21057;51.024;7.540;2022-12-10T09:08:55;0.20;99.90
15455;DHT22;21057;51.024;7.540;2022-12-10T09:11:24;0.10;99.90
15455;DHT22;21057;51.024;7.540;2022-12-10T09:13:55;0.10;99.90
15455;DHT22;21057;51.024;7.540;2022-12-10T09:16:28;0.20;99.90
15455;DHT22;21057;51.024;7.540;2022-12-10T09:18:55;0.40;99.90
15455;DHT22;21057;51.024;7.540;2022-12-10T09:21:22;0.60;99.90
15455;DHT22;21057;51.024;7.540;2022-12-10T09:23:51;0.60;99.90
15455;DHT22;21057;51.024;7.540;2022-12-10T09:26:20;0.70;99.90
15455;DHT22;21057;51.024;7.540;2022-12-10T09:28:47;0.80;99.90
15455;DHT22;21057;51.024;7.540;2022-12-10T09:31:16;0.70;99.90
15455;DHT22;21057;51.024;7.540;2022-12-10T09:33:44;0.40;99.90
15455;DHT22;21057;51.024;7.540;2022-12-10T09:36:12;0.30;99.90
15455;DHT22;21057;51.024;7.540;2022-12-10T09:38:42;0.40;99.90
15455;DHT22;21057;51.024;7.540;2022-12-10T09:41:38;0.70;99.90
15455;DHT22;21057;51.024;7.540;2022-12-10T09:44:16;0.70;99.90
15455;DHT22;21057;51.024;7.540;2022-12-10T09:46:52;0.40;99.90
15455;DHT22;21057;51.024;7.540;2022-12-10T09:49:28;0.40;99.90
15455;DHT22;21057;51.024;7.540;2022-12-10T09:51:59;0.40;99.90
15455;DHT22;21057;51.024;7.540;2022-12-10T09:54:35;0.60;99.90
15455;DHT22;21057;51.024;7.540;2022-12-10T09:57:08;0.70;99.90
15455;DHT22;21057;51.024;7.540;2022-12-10T09:59:40;0.90;99.90
15455;DHT22;21057;51.024;7.540;2022-12-10T10:02:16;1.00;99.90
15455;DHT22;21057;51.024;7.540;2022-12-10T10:04:45;0.70;99.90
15455;DHT22;21057;51.024;7.540;2022-12-10T10:07:18;0.70;99.90
15455;DHT22;21057;51.024;7.540;2022-12-10T10:09:49;0.60;99.90
15455;DHT22;21057;51.024;7.540;2022-12-10T10:12:18;0.20;99.90
15455;DHT22;21057;51.024;7.540;2022-12-10T10:14:45;0.30;99.90
15455;DHT22;21057;51.024;7.540;2022-12-10T10:17:18;0.20;99.90
15455;DHT22;21057;51.024;7.540;2022-12-10T10:19:45;0.30;99.90
15455;DHT22;21057;51.024;7.540;2022-12-10T10:22:12;0.50;99.90
15455;DHT22;21057;51.024;7.540;2022-12-10T10:24:41;0.70;99.90
15455;DHT22;21057;51.024;7.540;2022-12-10T10:27:13;0.90;99.90
15455;DHT22;21057;51.024;7.540;2022-12-10T10:29:46;0.90;99.90
15455;DHT22;21057;51.024;7.540;2022-12-10T10:32:17;1.00;99.90
15455;DHT22;21057;51.024;7.540;2022-12-10T10:34:46;0.90;99.90
15455;DHT22;21057;51.024;7.540;2022-12-10T10:37:19;1.10;99.90
15455;DHT22;21057;51.024;7.540;2022-12-10T10:39:48;1.10;99.90
15455;DHT22;21057;51.024;7.540;2022-12-10T10:42:25;1.10;99.90
15455;DHT22;21057;51.024;7.540;2022-12-10T10:44:55;1.00;99.90
15455;DHT22;21057;51.024;7.540;2022-12-10T10:47:30;1.00;99.90
15455;DHT22;21057;51.024;7.540;2022-12-10T10:49:58;1.20;99.90
15455;DHT22;21057;51.024;7.540;2022-12-10T10:52:28;1.20;99.90
15455;DHT22;21057;51.024;7.540;2022-12-10T10:54:56;1.20;99.90
15455;DHT22;21057;51.024;7.540;2022-12-10T10:57:27;1.20;99.90
15455;DHT22;21057;51.024;7.540;2022-12-10T11:00:02;1.30;99.90
15455;DHT22;21057;51.024;7.540;2022-12-10T11:02:36;1.10;99.90
15455;DHT22;21057;51.024;7.540;2022-12-10T11:05:06;1.10;99.90
15455;DHT22;21057;51.024;7.540;2022-12-10T11:07:35;1.30;99.90
15455;DHT22;21057;51.024;7.540;2022-12-10T11:10:03;1.10;99.90
15455;DHT22;21057;51.024;7.540;2022-12-10T11:12:41;1.10;99.90
15455;DHT22;21057;51.024;7.540;2022-12-10T11:15:30;1.30;99.90
15455;DHT22;21057;51.024;7.540;2022-12-10T11:17:58;1.30;99.90
15455;DHT22;21057;51.024;7.540;2022-12-10T11:20:27;1.20;99.90
15455;DHT22;21057;51.024;7.540;2022-12-10T11:22:56;1.10;99.90
15455;DHT22;21057;51.024;7.540;2022-12-10T11:25:33;1.00;99.90
15455;DHT22;21057;51.024;7.540;2022-12-10T11:28:10;1.20;99.90
15455;DHT22;21057;51.024;7.540;2022-12-10T11:30:48;1.10;99.90
15455;DHT22;21057;51.024;7.540;2022-12-10T11:33:30;1.10;99.90
15455;DHT22;21057;51.024;7.540;2022-12-10T11:36:07;1.10;99.90
15455;DHT22;21057;51.024;7.540;2022-12-10T11:38:45;1.10;99.90
15455;DHT22;21057;51.024;7.540;2022-12-10T11:41:18;1.00;99.90
15455;DHT22;21057;51.024;7.540;2022-12-10T11:44:10;1.10;99.90
15455;DHT22;21057;51.024;7.540;2022-12-10T11:47:00;1.00;99.90
15455;DHT22;21057;51.024;7.540;2022-12-10T11:49:35;1.10;99.90
15455;DHT22;21057;51.024;7.540;2022-12-10T11:52:09;1.50;99.90
15455;DHT22;21057;51.024;7.540;2022-12-10T11:54:58;1.40;99.90
15455;DHT22;21057;51.024;7.540;2022-12-10T11:57:33;1.30;99.90
15455;DHT22;21057;51.024;7.540;2022-12-10T12:00:16;1.30;99.90
15455;DHT22;21057;51.024;7.540;2022-12-10T12:03:07;1.30;99.90
15455;DHT22;21057;51.024;7.540;2022-12-10T12:05:52;1.40;99.90
15455;DHT22;21057;51.024;7.540;2022-12-10T12:08:30;1.50;99.90
15455;DHT22;21057;51.024;7.540;2022-12-10T12:11:18;1.40;99.90
15455;DHT22;21057;51.024;7.540;2022-12-10T12:13:53;1.30;99.90
15455;DHT22;21057;51.024;7.540;2022-12-10T12:16:26;1.00;99.90
15455;DHT22;21057;51.024;7.540;2022-12-10T12:19:00;1.30;99.90
15455;DHT22;21057;51.024;7.540;2022-12-10T12:21:32;1.20;99.90
15455;DHT22;21057;51.024;7.540;2022-12-10T12:24:02;1.30;99.90
15455;DHT22;21057;51.024;7.540;2022-12-10T12:26:34;1.20;99.90
15455;DHT22;21057;51.024;7.540;2022-12-10T12:29:10;0.90;99.90
15455;DHT22;21057;51.024;7.540;2022-12-10T12:31:46;0.80;99.90
15455;DHT22;21057;51.024;7.540;2022-12-10T12:34:26;0.50;99.90
15455;DHT22;21057;51.024;7.540;2022-12-10T12:37:02;0.80;99.90
15455;DHT22;21057;51.024;7.540;2022-12-10T12:39:41;1.00;99.90
15455;DHT22;21057;51.024;7.540;2022-12-10T12:42:19;1.00;99.90
15455;DHT22;21057;51.024;7.540;2022-12-10T12:45:00;1.10;99.90
15455;DHT22;21057;51.024;7.540;2022-12-10T12:47:34;0.80;99.90
15455;DHT22;21057;51.024;7.540;2022-12-10T12:50:15;0.90;99.90
15455;DHT22;21057;51.024;7.540;2022-12-10T12:52:48;1.00;99.90
15455;DHT22;21057;51.024;7.540;2022-12-10T12:55:20;0.90;99.90
15455;DHT22;21057;51.024;7.540;2022-12-10T12:57:53;0.60;99.90
15455;DHT22;21057;51.024;7.540;2022-12-10T13:00:24;0.60;99.90
15455;DHT22;21057;51.024;7.540;2022-12-10T13:02:58;0.80;99.90
15455;DHT22;21057;51.024;7.540;2022-12-10T13:05:31;1.00;99.90
15455;DHT22;21057;51.024;7.540;2022-12-10T13:08:24;0.90;99.90
15455;DHT22;21057;51.024;7.540;2022-12-10T13:10:56;0.80;99.90
15455;DHT22;21057;51.024;7.540;2022-12-10T13:13:29;1.00;99.90
15455;DHT22;21057;51.024;7.540;2022-12-10T13:19:23;1.00;99.90
15455;DHT22;21057;51.024;7.540;2022-12-10T13:22:06;0.90;99.90
15455;DHT22;21057;51.024;7.540;2022-12-10T13:27:42;1.30;99.90
15455;DHT22;21057;51.024;7.540;2022-12-10T13:30:33;1.40;99.90
15455;DHT22;21057;51.024;7.540;2022-12-10T13:33:16;1.40;99.90
15455;DHT22;21057;51.024;7.540;2022-12-10T13:35:57;1.50;99.90
15455;DHT22;21057;51.024;7.540;2022-12-10T13:38:26;1.90;99.90
15455;DHT22;21057;51.024;7.540;2022-12-10T13:41:02;1.80;99.90
15455;DHT22;21057;51.024;7.540;2022-12-10T13:43:56;1.90;99.90
15455;DHT22;21057;51.024;7.540;2022-12-10T13:46:57;1.70;99.90
15455;DHT22;21057;51.024;7.540;2022-12-10T13:49:26;1.70;99.90
15455;DHT22;21057;51.024;7.540;2022-12-10T13:51:58;1.80;99.90
15455;DHT22;21057;51.024;7.540;2022-12-10T13:57:44;1.90;99.90
15455;DHT22;21057;51.024;7.540;2022-12-10T14:00:17;1.70;99.90
15455;DHT22;21057;51.024;7.540;2022-12-10T14:03:06;1.70;99.90
15455;DHT22;21057;51.024;7.540;2022-12-10T14:05:46;1.80;99.90
15455;DHT22;21057;51.024;7.540;2022-12-10T14:08:19;1.80;99.90
15455;DHT22;21057;51.024;7.540;2022-12-10T14:10:50;1.80;99.90
15455;DHT22;21057;51.024;7.540;2022-12-10T14:13:21;1.70;99.90
15455;DHT22;21057;51.024;7.540;2022-12-10T14:15:55;1.50;99.90
15455;DHT22;21057;51.024;7.540;2022-12-10T14:18:23;1.60;99.90
15455;DHT22;21057;51.024;7.540;2022-12-10T14:21:05;1.60;99.90
15455;DHT22;21057;51.024;7.540;2022-12-10T14:23:34;1.70;99.90
15455;DHT22;21057;51.024;7.540;2022-12-10T14:26:09;1.70;99.90
15455;DHT22;21057;51.024;7.540;2022-12-10T14:28:39;1.70;99.90
15455;DHT22;21057;51.024;7.540;2022-12-10T14:31:12;1.60;99.90
15455;DHT22;21057;51.024;7.540;2022-12-10T14:33:40;1.50;99.90
15455;DHT22;21057;51.024;7.540;2022-12-10T14:36:15;1.60;99.90
15455;DHT22;21057;51.024;7.540;2022-12-10T14:38:45;1.50;99.90
15455;DHT22;21057;51.024;7.540;2022-12-10T14:41:17;1.60;99.90
15455;DHT22;21057;51.024;7.540;2022-12-10T14:43:45;1.70;99.90
15455;DHT22;21057;51.024;7.540;2022-12-10T14:46:15;1.70;99.90
15455;DHT22;21057;51.024;7.540;2022-12-10T14:48:43;1.70;99.90
15455;DHT22;21057;51.024;7.540;2022-12-10T14:51:13;1.70;99.90
15455;DHT22;21057;51.024;7.540;2022-12-10T14:53:41;1.60;99.90
15455;DHT22;21057;51.024;7.540;2022-12-10T14:56:11;1.60;99.90
15455;DHT22;21057;51.024;7.540;2022-12-10T14:58:46;1.60;99.90
15455;DHT22;21057;51.024;7.540;2022-12-10T15:01:18;1.60;99.90
15455;DHT22;21057;51.024;7.540;2022-12-10T15:03:53;1.50;99.90
15455;DHT22;21057;51.024;7.540;2022-12-10T15:06:20;1.50;99.90
15455;DHT22;21057;51.024;7.540;2022-12-10T15:08:49;1.40;99.90
15455;DHT22;21057;51.024;7.540;2022-12-10T15:11:20;1.40;99.90
15455;DHT22;21057;51.024;7.540;2022-12-10T15:13:52;1.60;99.90
15455;DHT22;21057;51.024;7.540;2022-12-10T15:16:29;1.40;99.90
15455;DHT22;21057;51.024;7.540;2022-12-10T15:19:08;1.30;99.90
15455;DHT22;21057;51.024;7.540;2022-12-10T15:21:42;1.40;99.90
15455;DHT22;21057;51.024;7.540;2022-12-10T15:24:21;1.30;99.90
15455;DHT22;21057;51.024;7.540;2022-12-10T15:26:52;1.20;99.90
15455;DHT22;21057;51.024;7.540;2022-12-10T15:29:35;1.10;99.90
15455;DHT22;21057;51.024;7.540;2022-12-10T15:32:12;1.20;99.90
15455;DHT22;21057;51.024;7.540;2022-12-10T15:34:44;1.20;99.90
15455;DHT22;21057;51.024;7.540;2022-12-10T15:37:19;1.00;99.90
15455;DHT22;21057;51.024;7.540;2022-12-10T15:39:50;1.10;99.90
15455;DHT22;21057;51.024;7.540;2022-12-10T15:42:30;1.20;99.90
15455;DHT22;21057;51.024;7.540;2022-12-10T15:45:03;1.30;99.90
15455;DHT22;21057;51.024;7.540;2022-12-10T15:47:35;1.20;99.90
15455;DHT22;21057;51.024;7.540;2022-12-10T15:50:04;1.00;99.90
15455;DHT22;21057;51.024;7.540;2022-12-10T15:52:31;1.10;99.90
15455;DHT22;21057;51.024;7.540;2022-12-10T15:54:58;1.10;99.90
15455;DHT22;21057;51.024;7.540;2022-12-10T15:57:30;1.10;99.90
15455;DHT22;21057;51.024;7.540;2022-12-10T16:00:00;1.20;99.90
15455;DHT22;21057;51.024;7.540;2022-12-10T16:02:35;1.10;99.90
15455;DHT22;21057;51.024;7.540;2022-12-10T16:05:10;1.30;99.90
15455;DHT22;21057;51.024;7.540;2022-12-10T16:07:38;1.10;99.90
15455;DHT22;21057;51.024;7.540;2022-12-10T16:10:05;1.30;99.90
15455;DHT22;21057;51.024;7.540;2022-12-10T16:12:36;1.40;99.90
15455;DHT22;21057;51.024;7.540;2022-12-10T16:15:07;1.10;99.90
15455;DHT22;21057;51.024;7.540;2022-12-10T16:17:34;1.10;99.90